Time;durP1;ratioP1;P1;durP2;ratioP2;P2;SDS_P1;SDS_P2;PMS_P1;PMS_P2;Temp;Humidity;BMP_temperature;BMP_pressure;BME280_temperature;BME280_humidity;BME280_pressure;Samples;Min_cycle;Max_cycle;Signal;HPM_P1;HPM_P2
2022/04/20 00:00:36;;;;;;;5.30;4.47;;;;;;;;;;5039378;28;20476;-63
2022/04/20 00:03:02;;;;;;;6.90;4.50;;;;;;;;;;5039411;28;20437;-64
2022/04/20 00:05:33;;;;;;;5.77;4.30;;;;;;;;;;5039269;28;20454;-72
2022/04/20 00:07:59;;;;;;;8.20;4.87;;;;;;;;;;5039526;28;20845;-65
2022/04/20 00:10:25;;;;;;;6.33;4.53;;;;;;;;;;5039348;28;20406;-73
2022/04/20 00:12:51;;;;;;;6.47;5.17;;;;;;;;;;5039295;28;20513;-71
2022/04/20 00:15:17;;;;;;;6.00;4.60;;;;;;;;;;5021740;28;20438;-72
2022/04/20 00:17:43;;;;;;;6.70;5.03;;;;;;;;;;5039167;28;20480;-68
2022/04/20 00:20:09;;;;;;;5.10;4.50;;;;;;;;;;5039168;28;20632;-68
2022/04/20 00:22:35;;;;;;;4.57;4.17;;;;;;;;;;5039249;28;20467;-72
2022/04/20 00:25:01;;;;;;;5.10;4.63;;;;;;;;;;5039245;28;20421;-66
2022/04/20 00:27:27;;;;;;;6.87;5.20;;;;;;;;;;5039284;28;20436;-74
2022/04/20 00:29:53;;;;;;;5.83;4.80;;;;;;;;;;5039087;28;20402;-71
2022/04/20 00:32:19;;;;;;;5.97;5.33;;;;;;;;;;5039069;28;20421;-66
2022/04/20 00:34:45;;;;;;;5.47;4.50;;;;;;;;;;5039092;28;20411;-65
2022/04/20 00:37:11;;;;;;;5.37;4.50;;;;;;;;;;5038982;28;20844;-73
2022/04/20 00:39:38;;;;;;;5.27;4.77;;;;;;;;;;5033549;28;20426;-71
2022/04/20 00:42:04;;;;;;;7.90;4.63;;;;;;;;;;5035942;28;20927;-68
2022/04/20 00:44:30;;;;;;;7.13;5.13;;;;;;;;;;5036082;28;20826;-72
2022/04/20 00:46:57;;;;;;;6.80;5.30;;;;;;;;;;5035729;28;20470;-71
2022/04/20 00:49:24;;;;;;;6.43;5.50;;;;;;;;;;5035818;28;20453;-65
2022/04/20 00:51:58;;;;;;;7.33;5.03;;;;;;;;;;5035692;28;20418;-72
2022/04/20 00:54:24;;;;;;;5.23;4.73;;;;;;;;;;5034587;28;20456;-73
2022/04/20 00:56:51;;;;;;;7.10;5.67;;;;;;;;;;5035562;28;20402;-69
2022/04/20 00:59:21;;;;;;;6.93;5.83;;;;;;;;;;5035571;28;20813;-70
2022/04/20 01:01:47;;;;;;;7.03;5.97;;;;;;;;;;5035579;28;20466;-65
2022/04/20 01:04:13;;;;;;;7.43;5.13;;;;;;;;;;5035574;28;20472;-73
2022/04/20 01:06:39;;;;;;;5.57;5.07;;;;;;;;;;5035413;28;20458;-72
2022/04/20 01:09:05;;;;;;;7.27;5.13;;;;;;;;;;5035538;28;20430;-71
2022/04/20 01:11:31;;;;;;;6.30;5.43;;;;;;;;;;5035361;28;20482;-72
2022/04/20 01:13:58;;;;;;;5.53;4.70;;;;;;;;;;5035360;28;20419;-72
2022/04/20 01:16:24;;;;;;;6.47;5.20;;;;;;;;;;5035138;28;20462;-72
2022/04/20 01:18:51;;;;;;;6.63;5.50;;;;;;;;;;5033986;28;20418;-70
2022/04/20 01:21:17;;;;;;;6.67;5.90;;;;;;;;;;5035245;28;20470;-65
2022/04/20 01:23:43;;;;;;;5.77;5.20;;;;;;;;;;5035238;28;20460;-64
2022/04/20 01:26:09;;;;;;;5.50;5.00;;;;;;;;;;5035202;28;20495;-71
2022/04/20 01:28:36;;;;;;;6.00;5.40;;;;;;;;;;5035163;28;20481;-64
2022/04/20 01:31:03;;;;;;;6.43;5.33;;;;;;;;;;5035198;28;20410;-65
2022/04/20 01:33:29;;;;;;;6.77;5.57;;;;;;;;;;5035075;28;20827;-66
2022/04/20 01:35:55;;;;;;;6.40;5.80;;;;;;;;;;5033621;28;20762;-65
2022/04/20 01:38:22;;;;;;;6.17;5.57;;;;;;;;;;5035052;28;20464;-63
2022/04/20 01:40:48;;;;;;;8.37;5.90;;;;;;;;;;5034811;28;20509;-64
2022/04/20 01:43:14;;;;;;;8.43;6.03;;;;;;;;;;5034840;28;20442;-63
2022/04/20 01:45:40;;;;;;;7.10;5.40;;;;;;;;;;5034621;28;20422;-63
2022/04/20 01:48:07;;;;;;;6.87;5.77;;;;;;;;;;5034718;28;20410;-63
2022/04/20 01:50:33;;;;;;;7.63;6.10;;;;;;;;;;5034420;28;20417;-63
2022/04/20 01:52:59;;;;;;;5.77;5.27;;;;;;;;;;5034693;28;20464;-63
2022/04/20 01:55:25;;;;;;;7.27;5.30;;;;;;;;;;5034525;28;20422;-64
2022/04/20 01:57:53;;;;;;;6.60;4.87;;;;;;;;;;5034534;28;20476;-64
2022/04/20 02:00:19;;;;;;;6.23;5.63;;;;;;;;;;5034446;28;20477;-63
2022/04/20 02:02:45;;;;;;;5.83;5.33;;;;;;;;;;5034396;28;20415;-63
2022/04/20 02:05:12;;;;;;;6.93;5.10;;;;;;;;;;5034246;28;20446;-63
2022/04/20 02:07:39;;;;;;;5.53;5.03;;;;;;;;;;5034486;28;20415;-63
2022/04/20 02:10:06;;;;;;;6.63;5.97;;;;;;;;;;5034428;28;20415;-63
2022/04/20 02:12:32;;;;;;;7.10;5.27;;;;;;;;;;5034218;28;20418;-63
2022/04/20 02:14:59;;;;;;;6.93;5.30;;;;;;;;;;5032992;28;20398;-64
2022/04/20 02:17:25;;;;;;;6.47;4.80;;;;;;;;;;5033993;28;20831;-64
2022/04/20 02:19:51;;;;;;;8.80;5.30;;;;;;;;;;5034104;28;20391;-64
2022/04/20 02:22:17;;;;;;;6.07;5.30;;;;;;;;;;5034078;28;20488;-63
2022/04/20 02:24:43;;;;;;;7.00;5.07;;;;;;;;;;5033923;28;20421;-63
2022/04/20 02:27:09;;;;;;;6.20;5.60;;;;;;;;;;5034042;28;20433;-63
2022/04/20 02:29:36;;;;;;;5.93;5.33;;;;;;;;;;5033959;28;20418;-63
2022/04/20 02:32:02;;;;;;;5.30;4.80;;;;;;;;;;5033758;28;20445;-63
2022/04/20 02:34:28;;;;;;;6.53;5.67;;;;;;;;;;5032453;28;20765;-72
2022/04/20 02:36:54;;;;;;;5.70;5.03;;;;;;;;;;5033508;28;20426;-62
2022/04/20 02:39:20;;;;;;;8.73;6.00;;;;;;;;;;5033821;28;20414;-65
2022/04/20 02:41:46;;;;;;;6.77;5.37;;;;;;;;;;5033538;28;20976;-72
2022/04/20 02:44:14;;;;;;;6.03;5.40;;;;;;;;;;5033509;28;20882;-72
2022/04/20 02:46:40;;;;;;;6.80;6.10;;;;;;;;;;5033602;28;20436;-71
2022/04/20 02:49:06;;;;;;;6.43;5.83;;;;;;;;;;5033568;28;20497;-72
2022/04/20 02:51:32;;;;;;;6.20;5.60;;;;;;;;;;5033555;28;20407;-64
2022/04/20 02:53:58;;;;;;;8.00;5.40;;;;;;;;;;5033191;28;20457;-71
2022/04/20 02:56:24;;;;;;;6.70;5.90;;;;;;;;;;5032182;28;20925;-71
2022/04/20 02:58:50;;;;;;;7.37;4.90;;;;;;;;;;5033492;28;20434;-70
2022/04/20 03:01:16;;;;;;;5.93;5.40;;;;;;;;;;5032449;28;20466;-64
2022/04/20 03:03:42;;;;;;;6.40;5.30;;;;;;;;;;5033346;28;20414;-70
2022/04/20 03:06:08;;;;;;;6.03;5.53;;;;;;;;;;5033253;28;21014;-72
2022/04/20 03:08:35;;;;;;;5.77;5.27;;;;;;;;;;5033412;28;20405;-63
2022/04/20 03:11:01;;;;;;;6.63;5.50;;;;;;;;;;5033249;28;20415;-64
2022/04/20 03:13:27;;;;;;;7.37;6.23;;;;;;;;;;5033036;28;20398;-63
2022/04/20 03:15:53;;;;;;;6.57;5.60;;;;;;;;;;5033119;28;20498;-73
2022/04/20 03:18:20;;;;;;;6.57;5.93;;;;;;;;;;5033293;28;20905;-72
2022/04/20 03:20:46;;;;;;;6.87;5.77;;;;;;;;;;5032995;28;20461;-68
2022/04/20 03:23:14;;;;;;;8.50;5.70;;;;;;;;;;5033077;28;20406;-70
2022/04/20 03:25:41;;;;;;;6.60;6.00;;;;;;;;;;5033066;28;20406;-64
2022/04/20 03:28:07;;;;;;;5.50;5.03;;;;;;;;;;5033130;28;20407;-70
2022/04/20 03:30:33;;;;;;;6.00;5.40;;;;;;;;;;5033096;28;20785;-64
2022/04/20 03:32:59;;;;;;;6.23;5.67;;;;;;;;;;5032853;28;20406;-73
2022/04/20 03:35:25;;;;;;;6.53;5.90;;;;;;;;;;5032998;28;20447;-65
2022/04/20 03:37:51;;;;;;;5.70;5.20;;;;;;;;;;5032896;28;20775;-65
2022/04/20 03:40:17;;;;;;;7.70;6.20;;;;;;;;;;5032758;28;20980;-73
2022/04/20 03:42:43;;;;;;;6.20;5.20;;;;;;;;;;5032755;28;20915;-67
2022/04/20 03:45:09;;;;;;;6.10;5.37;;;;;;;;;;5031649;28;20506;-64
2022/04/20 03:47:35;;;;;;;6.10;5.50;;;;;;;;;;5032877;28;20445;-62
2022/04/20 03:50:01;;;;;;;6.80;4.80;;;;;;;;;;5032939;28;20442;-63
2022/04/20 03:52:27;;;;;;;7.20;5.67;;;;;;;;;;5032743;28;20464;-63
2022/04/20 03:54:53;;;;;;;5.80;5.30;;;;;;;;;;5032987;28;20463;-64
2022/04/20 03:57:19;;;;;;;7.33;5.80;;;;;;;;;;5032831;28;20414;-70
2022/04/20 03:59:46;;;;;;;6.00;5.50;;;;;;;;;;5032750;28;20910;-71
2022/04/20 04:02:12;;;;;;;6.50;5.90;;;;;;;;;;5032775;28;20423;-64
2022/04/20 04:04:38;;;;;;;6.87;5.83;;;;;;;;;;5032913;28;20419;-63
2022/04/20 04:07:04;;;;;;;7.00;5.63;;;;;;;;;;5032681;28;20822;-72
2022/04/20 04:09:30;;;;;;;7.37;5.87;;;;;;;;;;5032760;28;20402;-63
2022/04/20 04:11:56;;;;;;;8.83;6.00;;;;;;;;;;5032748;28;20407;-64
2022/04/20 04:14:22;;;;;;;6.97;5.47;;;;;;;;;;5036379;28;20437;-63
2022/04/20 04:16:48;;;;;;;7.07;6.07;;;;;;;;;;5036214;28;20445;-71
2022/04/20 04:19:15;;;;;;;5.67;5.17;;;;;;;;;;5036330;28;20410;-63
2022/04/20 04:21:41;;;;;;;6.63;6.00;;;;;;;;;;5036243;28;20972;-63
2022/04/20 04:24:08;;;;;;;6.97;5.97;;;;;;;;;;5036346;28;20406;-63
2022/04/20 04:26:34;;;;;;;7.03;6.20;;;;;;;;;;5036079;28;20426;-64
2022/04/20 04:29:00;;;;;;;6.13;5.53;;;;;;;;;;5036077;28;20876;-70
2022/04/20 04:31:27;;;;;;;6.63;5.97;;;;;;;;;;5036189;28;20533;-69
2022/04/20 04:33:53;;;;;;;5.47;4.97;;;;;;;;;;5036078;28;20414;-72
2022/04/20 04:36:19;;;;;;;6.70;5.60;;;;;;;;;;5036157;28;20399;-70
2022/04/20 04:38:45;;;;;;;6.03;5.43;;;;;;;;;;5036116;28;20405;-67
2022/04/20 04:41:11;;;;;;;6.17;5.53;;;;;;;;;;5036057;28;20461;-72
2022/04/20 04:43:37;;;;;;;6.67;5.70;;;;;;;;;;5036031;28;20399;-71
2022/04/20 04:48:48;;;;;;;12.27;6.50;;;;;;;;;;5036169;28;20517;-65
2022/04/20 04:51:15;;;;;;;6.73;5.83;;;;;;;;;;5035729;28;20422;-70
2022/04/20 04:53:41;;;;;;;12.23;6.23;;;;;;;;;;5035741;28;20449;-68
2022/04/20 04:56:07;;;;;;;5.73;5.23;;;;;;;;;;5035539;28;20776;-63
2022/04/20 04:58:33;;;;;;;10.47;6.37;;;;;;;;;;5035711;28;21142;-68
2022/04/20 05:00:59;;;;;;;6.27;5.60;;;;;;;;;;5035401;28;20481;-64
2022/04/20 05:03:26;;;;;;;8.20;6.00;;;;;;;;;;5035642;28;20400;-69
2022/04/20 05:05:53;;;;;;;6.47;5.87;;;;;;;;;;5035372;28;20470;-64
2022/04/20 05:08:19;;;;;;;10.90;5.73;;;;;;;;;;5035583;28;20411;-71
2022/04/20 05:10:45;;;;;;;6.90;5.97;;;;;;;;;;5035324;28;20416;-63
2022/04/20 05:13:11;;;;;;;7.57;5.80;;;;;;;;;;5035312;28;20898;-70
2022/04/20 05:15:37;;;;;;;9.83;6.20;;;;;;;;;;5035261;28;20412;-64
2022/04/20 05:18:03;;;;;;;6.40;5.80;;;;;;;;;;5035303;28;20402;-66
2022/04/20 05:20:29;;;;;;;7.83;5.97;;;;;;;;;;5035127;28;20551;-63
2022/04/20 05:22:55;;;;;;;6.97;5.67;;;;;;;;;;5035189;28;20531;-72
2022/04/20 05:25:22;;;;;;;6.47;5.87;;;;;;;;;;5034277;28;20403;-64
2022/04/20 05:27:48;;;;;;;8.67;5.60;;;;;;;;;;5034975;28;20421;-66
2022/04/20 05:30:14;;;;;;;10.40;6.10;;;;;;;;;;5035013;28;20489;-70
2022/04/20 05:32:41;;;;;;;6.80;5.47;;;;;;;;;;5034715;28;20502;-63
2022/04/20 05:35:07;;;;;;;8.40;5.40;;;;;;;;;;5034905;28;20417;-64
2022/04/20 05:43:03;;;;;;;13.50;5.90;;;;;;;;;;5034839;28;20512;-63
2022/04/20 05:45:29;;;;;;;9.87;6.30;;;;;;;;;;5034780;28;20444;-63
2022/04/20 05:47:58;;;;;;;6.60;5.70;;;;;;;;;;5034622;28;20432;-71
2022/04/20 05:50:24;;;;;;;9.23;5.93;;;;;;;;;;5034555;28;20403;-64
2022/04/20 05:52:50;;;;;;;7.07;5.90;;;;;;;;;;5034461;28;20413;-73
2022/04/20 05:55:16;;;;;;;6.93;5.80;;;;;;;;;;5034433;28;20399;-64
2022/04/20 05:57:43;;;;;;;7.67;5.57;;;;;;;;;;5034492;28;20429;-63
2022/04/20 06:00:09;;;;;;;12.50;5.67;;;;;;;;;;5034206;28;20450;-72
2022/04/20 06:02:35;;;;;;;7.83;6.07;;;;;;;;;;5034318;28;20466;-63
2022/04/20 06:05:01;;;;;;;7.33;5.43;;;;;;;;;;5034254;28;20821;-64
2022/04/20 06:07:28;;;;;;;6.33;5.30;;;;;;;;;;5034383;28;20429;-65
2022/04/20 06:09:54;;;;;;;6.40;5.50;;;;;;;;;;5034179;28;20416;-64
2022/04/20 06:12:20;;;;;;;6.03;5.43;;;;;;;;;;5034034;28;20479;-63
2022/04/20 06:14:49;;;;;;;8.87;6.33;;;;;;;;;;5034211;28;20420;-64
2022/04/20 06:17:15;;;;;;;6.30;5.00;;;;;;;;;;5034062;28;20437;-71
2022/04/20 06:19:41;;;;;;;5.97;5.40;;;;;;;;;;5034004;28;20404;-69
2022/04/20 06:22:07;;;;;;;7.90;5.77;;;;;;;;;;5033850;28;20480;-68
2022/04/20 06:24:33;;;;;;;6.83;5.50;;;;;;;;;;5033904;28;20409;-63
2022/04/20 06:26:59;;;;;;;6.50;5.47;;;;;;;;;;5033937;28;20468;-65
2022/04/20 06:29:25;;;;;;;7.77;6.40;;;;;;;;;;5033923;28;20414;-65
2022/04/20 06:31:51;;;;;;;4.80;4.40;;;;;;;;;;5032488;28;20904;-73
2022/04/20 06:34:18;;;;;;;6.10;4.30;;;;;;;;;;5033771;28;20425;-63
2022/04/20 06:36:44;;;;;;;6.27;5.10;;;;;;;;;;5032856;28;20417;-63
2022/04/20 06:39:10;;;;;;;5.43;4.87;;;;;;;;;;5033714;28;20402;-69
2022/04/20 06:41:36;;;;;;;5.23;4.73;;;;;;;;;;5033522;28;20948;-72
2022/04/20 06:44:02;;;;;;;5.40;4.80;;;;;;;;;;5033458;28;20411;-69
2022/04/20 06:46:28;;;;;;;5.33;4.43;;;;;;;;;;5033541;28;20496;-63
2022/04/20 06:48:55;;;;;;;5.23;4.73;;;;;;;;;;5033485;28;20866;-65
2022/04/20 06:51:21;;;;;;;12.47;5.77;;;;;;;;;;5033416;28;20505;-64
2022/04/20 06:59:16;;;;;;;5.70;4.70;;;;;;;;;;5033509;28;20398;-73
2022/04/20 07:01:42;;;;;;;7.80;5.17;;;;;;;;;;5033132;28;20477;-71
2022/04/20 07:04:08;;;;;;;4.97;4.50;;;;;;;;;;5033307;28;20416;-71
2022/04/20 07:06:34;;;;;;;7.00;4.83;;;;;;;;;;5033028;28;20994;-64
2022/04/20 07:09:00;;;;;;;6.43;4.37;;;;;;;;;;5033367;28;20394;-65
2022/04/20 07:11:28;;;;;;;9.93;4.20;;;;;;;;;;5031904;28;20805;-65
2022/04/20 07:13:55;;;;;;;7.73;4.17;;;;;;;;;;5033033;28;20869;-64
2022/04/20 07:16:21;;;;;;;4.67;4.00;;;;;;;;;;5033119;28;20437;-65
2022/04/20 07:18:47;;;;;;;4.40;3.97;;;;;;;;;;5033265;28;20502;-72
2022/04/20 07:21:13;;;;;;;6.10;4.93;;;;;;;;;;5032966;28;20624;-65
2022/04/20 07:23:39;;;;;;;4.50;4.10;;;;;;;;;;5033135;28;20410;-72
2022/04/20 07:26:05;;;;;;;5.00;4.50;;;;;;;;;;5033085;28;20982;-65
2022/04/20 07:28:31;;;;;;;4.63;4.23;;;;;;;;;;5033143;28;20399;-69
2022/04/20 07:30:57;;;;;;;5.40;4.77;;;;;;;;;;5032872;28;20400;-66
2022/04/20 07:33:24;;;;;;;5.40;4.67;;;;;;;;;;5032948;28;20460;-72
2022/04/20 07:35:50;;;;;;;5.83;4.10;;;;;;;;;;5032769;28;20414;-71
2022/04/20 07:38:16;;;;;;;5.10;3.93;;;;;;;;;;5033029;28;20427;-65
2022/04/20 07:40:42;;;;;;;4.43;3.97;;;;;;;;;;5032772;28;20462;-73
2022/04/20 07:43:08;;;;;;;4.40;3.67;;;;;;;;;;5032863;28;20498;-68
2022/04/20 07:45:34;;;;;;;4.63;4.23;;;;;;;;;;5032645;28;20502;-72
2022/04/20 07:48:00;;;;;;;5.30;4.43;;;;;;;;;;5034384;28;20414;-71
2022/04/20 07:50:27;;;;;;;6.87;4.63;;;;;;;;;;5036807;28;20746;-66
2022/04/20 07:52:54;;;;;;;5.10;4.47;;;;;;;;;;5036616;28;20497;-64
2022/04/20 07:55:21;;;;;;;5.70;3.90;;;;;;;;;;5036779;28;20407;-65
2022/04/20 07:57:48;;;;;;;7.07;4.23;;;;;;;;;;5036651;28;20423;-66
2022/04/20 08:00:15;;;;;;;5.30;4.80;;;;;;;;;;5036348;28;21030;-72
2022/04/20 08:02:41;;;;;;;6.30;4.93;;;;;;;;;;5036521;28;20425;-71
2022/04/20 08:05:07;;;;;;;8.80;4.93;;;;;;;;;;5036271;28;20496;-65
2022/04/20 08:07:34;;;;;;;5.00;3.80;;;;;;;;;;5036593;28;20398;-65
2022/04/20 08:10:00;;;;;;;8.00;4.73;;;;;;;;;;5036188;28;20414;-73
2022/04/20 08:12:28;;;;;;;10.80;4.80;;;;;;;;;;5036061;28;20436;-68
2022/04/20 08:14:54;;;;;;;4.70;4.27;;;;;;;;;;5036359;28;20464;-72
2022/04/20 08:17:20;;;;;;;5.17;4.70;;;;;;;;;;5036175;28;20418;-71
2022/04/20 08:19:47;;;;;;;5.73;4.30;;;;;;;;;;5036270;28;20410;-73
2022/04/20 08:22:14;;;;;;;6.87;4.87;;;;;;;;;;5036191;28;20472;-74
2022/04/20 08:24:43;;;;;;;4.50;4.10;;;;;;;;;;5036182;28;20434;-73
2022/04/20 08:27:09;;;;;;;20.93;5.03;;;;;;;;;;5036122;28;20805;-72
2022/04/20 08:29:35;;;;;;;4.50;4.10;;;;;;;;;;5036114;28;20409;-72
2022/04/20 08:32:01;;;;;;;4.87;4.40;;;;;;;;;;5036063;28;20490;-72
2022/04/20 08:34:27;;;;;;;4.80;4.40;;;;;;;;;;5035914;28;21003;-65
2022/04/20 08:36:53;;;;;;;5.73;4.60;;;;;;;;;;5035929;28;20403;-65
2022/04/20 08:39:19;;;;;;;9.00;4.90;;;;;;;;;;5035883;28;20540;-71
2022/04/20 08:41:49;;;;;;;6.40;5.10;;;;;;;;;;5035652;28;20865;-69
2022/04/20 08:44:19;;;;;;;5.17;4.60;;;;;;;;;;5035842;28;20502;-73
2022/04/20 08:46:46;;;;;;;5.37;4.87;;;;;;;;;;5035771;28;20414;-66
2022/04/20 08:49:12;;;;;;;8.93;4.90;;;;;;;;;;5034236;28;20480;-67
2022/04/20 08:54:23;;;;;;;5.63;5.13;;;;;;;;;;5035784;28;20433;-69
2022/04/20 08:59:36;;;;;;;5.43;4.87;;;;;;;;;;5034632;28;20892;-72
2022/04/20 09:02:03;;;;;;;8.37;5.20;;;;;;;;;;5034055;28;21035;-72
2022/04/20 09:04:29;;;;;;;5.47;4.90;;;;;;;;;;5035507;28;20406;-67
2022/04/20 09:06:55;;;;;;;5.83;5.20;;;;;;;;;;5035404;28;20494;-72
2022/04/20 09:09:28;;;;;;;4.67;4.27;;;;;;;;;;5035363;28;20445;-65
2022/04/20 09:11:57;;;;;;;5.93;4.70;;;;;;;;;;5033956;28;20406;-65
2022/04/20 09:14:23;;;;;;;4.40;3.60;;;;;;;;;;5035305;28;20460;-73
2022/04/20 09:16:54;;;;;;;5.17;4.67;;;;;;;;;;5035270;28;20429;-72
2022/04/20 09:19:24;;;;;;;4.50;4.10;;;;;;;;;;5035328;28;20419;-66
2022/04/20 09:21:50;;;;;;;4.97;4.00;;;;;;;;;;5035131;28;20474;-64
2022/04/20 09:24:16;;;;;;;5.07;3.97;;;;;;;;;;5035045;28;20460;-71
2022/04/20 09:26:56;;;;;;;5.30;4.30;;;;;;;;;;5034957;28;20434;-71
2022/04/20 09:29:22;;;;;;;4.40;4.00;;;;;;;;;;5034922;28;20406;-63
2022/04/20 09:31:50;;;;;;;3.93;3.30;;;;;;;;;;5034812;28;20468;-64
2022/04/20 09:34:25;;;;;;;5.00;4.50;;;;;;;;;;5034925;28;20455;-72
2022/04/20 09:36:54;;;;;;;4.13;3.40;;;;;;;;;;5034917;28;20471;-73
2022/04/20 09:39:20;;;;;;;10.73;4.03;;;;;;;;;;5034833;28;20425;-72
2022/04/20 09:41:59;;;;;;;6.77;3.83;;;;;;;;;;5034513;28;20568;-64
2022/04/20 09:44:26;;;;;;;5.80;4.10;;;;;;;;;;5034822;28;20434;-68
2022/04/20 09:49:53;;;;;;;4.00;3.57;;;;;;;;;;5034920;28;20441;-68
2022/04/20 09:52:19;;;;;;;4.23;3.87;;;;;;;;;;5034573;28;20415;-69
2022/04/20 09:54:55;;;;;;;4.47;4.00;;;;;;;;;;5034333;28;20414;-63
2022/04/20 09:57:22;;;;;;;4.40;4.10;;;;;;;;;;5034493;28;20446;-66
2022/04/20 10:00:11;;;;;;;5.17;3.80;;;;;;;;;;5034436;28;20481;-63
2022/04/20 10:02:37;;;;;;;3.73;3.43;;;;;;;;;;5034465;28;20520;-71
2022/04/20 10:05:04;;;;;;;6.57;3.50;;;;;;;;;;5034085;28;20450;-65
2022/04/20 10:07:30;;;;;;;3.90;3.60;;;;;;;;;;5034382;28;20497;-74
2022/04/20 10:09:57;;;;;;;3.67;3.17;;;;;;;;;;5034052;28;20398;-71
2022/04/20 10:12:24;;;;;;;3.90;3.60;;;;;;;;;;5034188;28;20411;-71
2022/04/20 10:17:43;;;;;;;4.47;3.00;;;;;;;;;;5034323;28;20505;-71
2022/04/20 10:20:10;;;;;;;4.43;3.83;;;;;;;;;;5033917;28;20410;-68
2022/04/20 10:22:37;;;;;;;4.07;3.67;;;;;;;;;;5033880;28;20453;-63
2022/04/20 10:25:04;;;;;;;4.00;3.60;;;;;;;;;;5033836;28;20422;-64
2022/04/20 10:27:34;;;;;;;4.70;4.00;;;;;;;;;;5033654;28;20830;-73
2022/04/20 10:30:02;;;;;;;4.43;4.07;;;;;;;;;;5033817;28;20831;-70
2022/04/20 10:32:32;;;;;;;6.47;4.07;;;;;;;;;;5033603;28;20402;-69
2022/04/20 10:34:59;;;;;;;3.80;3.50;;;;;;;;;;5033785;28;20410;-66
2022/04/20 10:37:28;;;;;;;5.10;3.60;;;;;;;;;;5033826;28;20410;-71
2022/04/20 10:40:12;;;;;;;5.30;3.40;;;;;;;;;;5033531;28;20426;-74
2022/04/20 10:42:38;;;;;;;4.77;4.37;;;;;;;;;;5033715;28;20509;-66
2022/04/20 10:45:05;;;;;;;5.70;4.23;;;;;;;;;;5033570;28;20403;-64
2022/04/20 10:47:34;;;;;;;4.53;3.87;;;;;;;;;;5033467;28;20430;-66
2022/04/20 10:50:17;;;;;;;4.30;3.90;;;;;;;;;;5033319;28;20449;-67
2022/04/20 10:52:46;;;;;;;5.33;4.10;;;;;;;;;;5033371;28;20757;-68
2022/04/20 10:55:13;;;;;;;7.00;4.07;;;;;;;;;;5033488;28;20440;-73
2022/04/20 10:57:40;;;;;;;3.40;3.10;;;;;;;;;;5033594;28;20398;-67
2022/04/20 11:00:21;;;;;;;4.43;3.80;;;;;;;;;;5031940;28;20988;-64
2022/04/20 11:02:54;;;;;;;4.77;3.60;;;;;;;;;;5033285;28;20426;-68
2022/04/20 11:05:24;;;;;;;7.63;3.50;;;;;;;;;;5033003;28;20474;-71
2022/04/20 11:08:03;;;;;;;5.30;3.63;;;;;;;;;;5033380;28;20825;-69
2022/04/20 11:10:29;;;;;;;3.37;3.07;;;;;;;;;;5033250;28;20405;-65
2022/04/20 11:19:03;;;;;;;3.43;3.13;;;;;;;;;;5033289;28;20433;-72
2022/04/20 11:21:29;;;;;;;4.17;3.77;;;;;;;;;;5032982;28;20916;-69
2022/04/20 11:23:58;;;;;;;5.33;3.80;;;;;;;;;;5032710;28;20394;-73
2022/04/20 11:26:30;;;;;;;3.53;3.33;;;;;;;;;;5033134;28;20426;-70
2022/04/20 11:28:57;;;;;;;4.30;3.43;;;;;;;;;;5033239;28;20398;-74
2022/04/20 11:31:24;;;;;;;3.83;3.53;;;;;;;;;;5033021;28;20455;-66
2022/04/20 11:33:51;;;;;;;4.13;3.40;;;;;;;;;;5032960;28;20414;-68
2022/04/20 11:36:17;;;;;;;6.80;3.30;;;;;;;;;;5033093;28;20405;-69
2022/04/20 11:38:44;;;;;;;3.70;3.33;;;;;;;;;;5033130;28;20395;-74
2022/04/20 11:41:11;;;;;;;4.93;3.60;;;;;;;;;;5032865;28;20520;-64
2022/04/20 11:43:38;;;;;;;4.33;3.87;;;;;;;;;;5032981;28;20410;-71
2022/04/20 11:46:04;;;;;;;5.50;3.43;;;;;;;;;;5033010;28;20584;-70
2022/04/20 11:48:32;;;;;;;5.90;4.27;;;;;;;;;;5032942;28;20432;-71
2022/04/20 11:51:02;;;;;;;4.57;3.70;;;;;;;;;;5032845;28;20434;-64
2022/04/20 11:53:35;;;;;;;4.27;3.80;;;;;;;;;;5032777;28;20511;-71
2022/04/20 11:56:02;;;;;;;4.63;4.23;;;;;;;;;;5032952;28;20476;-65
2022/04/20 11:58:28;;;;;;;5.47;4.13;;;;;;;;;;5032944;28;20485;-68
2022/04/20 12:01:05;;;;;;;6.33;4.17;;;;;;;;;;5031472;28;20588;-73
2022/04/20 12:03:31;;;;;;;7.33;4.00;;;;;;;;;;5032852;28;20500;-69
2022/04/20 12:06:07;;;;;;;3.97;3.67;;;;;;;;;;5032627;28;20442;-66
2022/04/20 12:08:34;;;;;;;7.43;4.13;;;;;;;;;;5032756;28;20885;-71
2022/04/20 12:11:10;;;;;;;4.17;3.70;;;;;;;;;;5032783;28;20414;-73
2022/04/20 12:13:36;;;;;;;5.00;4.30;;;;;;;;;;5032666;28;20418;-74
2022/04/20 12:16:07;;;;;;;5.17;4.57;;;;;;;;;;5032646;28;20507;-65
2022/04/20 12:18:37;;;;;;;4.07;3.67;;;;;;;;;;5032615;28;20410;-64
2022/04/20 12:21:04;;;;;;;7.63;4.30;;;;;;;;;;5032632;28;20515;-67
2022/04/20 12:23:32;;;;;;;3.80;3.30;;;;;;;;;;5032638;28;20406;-75
2022/04/20 12:26:01;;;;;;;4.83;4.43;;;;;;;;;;5032760;28;20493;-67
2022/04/20 12:28:41;;;;;;;4.50;3.80;;;;;;;;;;5032588;28;20760;-70
2022/04/20 12:31:08;;;;;;;5.37;4.87;;;;;;;;;;5032589;28;20430;-73
2022/04/20 12:33:34;;;;;;;6.20;3.73;;;;;;;;;;5033153;28;20422;-67
2022/04/20 12:36:00;;;;;;;3.70;3.40;;;;;;;;;;5036202;28;20420;-65
2022/04/20 12:38:27;;;;;;;3.80;3.50;;;;;;;;;;5036077;28;20445;-64
2022/04/20 12:40:53;;;;;;;4.00;3.70;;;;;;;;;;5035934;28;20450;-74
2022/04/20 12:43:19;;;;;;;5.60;3.90;;;;;;;;;;5036075;28;20426;-65
2022/04/20 12:45:46;;;;;;;4.03;3.73;;;;;;;;;;5035808;28;20513;-72
2022/04/20 12:48:12;;;;;;;3.53;3.23;;;;;;;;;;5035816;28;20418;-75
2022/04/20 12:50:39;;;;;;;3.73;3.43;;;;;;;;;;5035827;28;20454;-69
2022/04/20 12:53:05;;;;;;;4.50;3.87;;;;;;;;;;5035614;28;20446;-65
2022/04/20 12:55:35;;;;;;;3.57;3.27;;;;;;;;;;5035762;28;20453;-67
2022/04/20 13:03:35;;;;;;;7.00;3.57;;;;;;;;;;5035867;28;20409;-63
2022/04/20 13:06:02;;;;;;;3.20;2.90;;;;;;;;;;5035426;28;20528;-67
2022/04/20 13:08:28;;;;;;;5.00;3.97;;;;;;;;;;5035559;28;20925;-65
2022/04/20 13:10:54;;;;;;;5.33;4.13;;;;;;;;;;5035510;28;20902;-67
2022/04/20 13:13:24;;;;;;;3.90;3.60;;;;;;;;;;5035189;28;20883;-66
2022/04/20 13:15:50;;;;;;;5.23;3.60;;;;;;;;;;5035324;28;20948;-68
2022/04/20 13:18:16;;;;;;;4.47;4.07;;;;;;;;;;5035287;28;20850;-65
2022/04/20 13:20:42;;;;;;;3.97;3.67;;;;;;;;;;5035111;28;20968;-71
2022/04/20 13:23:08;;;;;;;4.40;3.23;;;;;;;;;;5035312;28;20410;-74
2022/04/20 13:28:19;;;;;;;4.00;3.53;;;;;;;;;;5035573;28;20512;-71
2022/04/20 13:30:46;;;;;;;4.47;3.97;;;;;;;;;;5035050;28;20435;-69
2022/04/20 13:33:14;;;;;;;4.03;3.50;;;;;;;;;;5035084;28;20394;-67
2022/04/20 13:35:41;;;;;;;3.40;3.10;;;;;;;;;;5034997;28;20489;-74
2022/04/20 13:38:07;;;;;;;6.40;3.37;;;;;;;;;;5034993;28;20415;-65
2022/04/20 13:40:34;;;;;;;3.93;3.23;;;;;;;;;;5034802;28;20476;-68
2022/04/20 13:43:00;;;;;;;3.50;3.20;;;;;;;;;;5034843;28;20977;-63
2022/04/20 13:45:27;;;;;;;5.63;3.47;;;;;;;;;;5032857;28;20446;-66
2022/04/20 13:47:53;;;;;;;6.10;3.50;;;;;;;;;;5034669;28;20399;-64
2022/04/20 13:50:19;;;;;;;3.07;2.87;;;;;;;;;;5033466;28;20407;-64
2022/04/20 13:52:45;;;;;;;3.33;3.00;;;;;;;;;;5034696;28;20407;-64
2022/04/20 13:55:12;;;;;;;3.90;3.23;;;;;;;;;;5034613;28;20506;-63
2022/04/20 13:57:38;;;;;;;3.90;3.40;;;;;;;;;;5034588;28;20410;-73
2022/04/20 14:00:09;;;;;;;3.83;3.53;;;;;;;;;;5034525;28;20452;-64
2022/04/20 14:02:35;;;;;;;3.90;3.60;;;;;;;;;;5034546;28;20462;-72
2022/04/20 14:05:01;;;;;;;3.67;3.30;;;;;;;;;;5034236;28;20432;-64
2022/04/20 14:07:27;;;;;;;3.47;3.17;;;;;;;;;;5034469;28;20476;-64
2022/04/20 14:09:53;;;;;;;4.60;4.10;;;;;;;;;;5034232;28;20418;-64
2022/04/20 14:12:20;;;;;;;4.87;4.00;;;;;;;;;;5034380;28;20889;-67
2022/04/20 14:14:46;;;;;;;9.20;4.10;;;;;;;;;;5034128;28;20406;-64
2022/04/20 14:17:15;;;;;;;4.20;3.80;;;;;;;;;;5034180;28;20457;-63
2022/04/20 14:19:43;;;;;;;3.60;3.30;;;;;;;;;;5034105;28;20429;-71
2022/04/20 14:22:09;;;;;;;3.50;3.20;;;;;;;;;;5032826;28;20470;-63
2022/04/20 14:24:36;;;;;;;4.23;3.93;;;;;;;;;;5034087;28;20436;-64
2022/04/20 14:32:31;;;;;;;4.40;4.00;;;;;;;;;;5033831;28;20462;-65
2022/04/20 14:34:57;;;;;;;4.27;3.50;;;;;;;;;;5033882;28;20411;-65
2022/04/20 14:37:24;;;;;;;4.00;3.70;;;;;;;;;;5033806;28;20410;-64
2022/04/20 14:39:50;;;;;;;4.50;4.10;;;;;;;;;;5032634;28;20773;-64
2022/04/20 14:42:17;;;;;;;4.80;3.70;;;;;;;;;;5033596;28;20576;-75
2022/04/20 14:44:46;;;;;;;4.17;3.77;;;;;;;;;;5033681;28;20804;-72
2022/04/20 14:47:12;;;;;;;5.20;4.00;;;;;;;;;;5033523;28;20935;-63
2022/04/20 14:49:38;;;;;;;5.33;3.40;;;;;;;;;;5033530;28;20426;-64
2022/04/20 14:52:09;;;;;;;4.40;4.00;;;;;;;;;;5033582;28;20430;-70
2022/04/20 14:54:42;;;;;;;8.13;3.53;;;;;;;;;;5033548;28;20406;-70
2022/04/20 14:57:08;;;;;;;3.80;3.50;;;;;;;;;;5032762;28;20410;-70
2022/04/20 14:59:35;;;;;;;3.90;3.57;;;;;;;;;;5033619;28;20403;-73
2022/04/20 15:02:04;;;;;;;4.33;3.93;;;;;;;;;;5033435;28;20466;-64
2022/04/20 15:04:31;;;;;;;4.87;3.80;;;;;;;;;;5032271;28;20406;-64
2022/04/20 15:06:57;;;;;;;3.53;3.27;;;;;;;;;;5031850;28;20886;-72
2022/04/20 15:09:25;;;;;;;3.57;3.37;;;;;;;;;;5033362;28;20472;-72
2022/04/20 15:11:51;;;;;;;3.77;3.47;;;;;;;;;;5033474;28;20422;-71
2022/04/20 15:14:17;;;;;;;5.83;3.90;;;;;;;;;;5033264;28;20402;-64
2022/04/20 15:16:45;;;;;;;3.83;3.13;;;;;;;;;;5033103;28;20492;-64
2022/04/20 15:19:11;;;;;;;4.13;3.70;;;;;;;;;;5033033;28;20453;-62
2022/04/20 15:21:38;;;;;;;3.90;3.50;;;;;;;;;;5033090;28;20511;-63
2022/04/20 15:24:04;;;;;;;4.47;4.07;;;;;;;;;;5033178;28;20407;-73
2022/04/20 15:26:30;;;;;;;6.77;4.00;;;;;;;;;;5033104;28;20429;-63